sensor_id;sensor_type;location;lat;lon;timestamp;P1;durP1;ratioP1;P2;durP2;ratioP2
9445;SDS011;4761;49.490;10.908;2022-11-25T00:02:17;7.93;;;6.60;;
9445;SDS011;4761;49.490;10.908;2022-11-25T00:04:44;7.07;;;6.37;;
9445;SDS011;4761;49.490;10.908;2022-11-25T00:07:09;7.50;;;6.47;;
9445;SDS011;4761;49.490;10.908;2022-11-25T00:09:35;7.13;;;6.30;;
9445;SDS011;4761;49.490;10.908;2022-11-25T00:12:00;7.70;;;6.30;;
9445;SDS011;4761;49.490;10.908;2022-11-25T00:14:26;7.63;;;6.50;;
9445;SDS011;4761;49.490;10.908;2022-11-25T00:16:51;7.87;;;6.17;;
9445;SDS011;4761;49.490;10.908;2022-11-25T00:19:17;9.23;;;6.83;;
9445;SDS011;4761;49.490;10.908;2022-11-25T00:21:42;7.60;;;6.37;;
9445;SDS011;4761;49.490;10.908;2022-11-25T00:24:08;7.77;;;6.97;;
9445;SDS011;4761;49.490;10.908;2022-11-25T00:26:40;8.00;;;7.20;;
9445;SDS011;4761;49.490;10.908;2022-11-25T00:29:06;8.90;;;6.63;;
9445;SDS011;4761;49.490;10.908;2022-11-25T00:31:35;8.67;;;6.80;;
9445;SDS011;4761;49.490;10.908;2022-11-25T00:34:02;7.53;;;6.73;;
9445;SDS011;4761;49.490;10.908;2022-11-25T00:36:31;9.13;;;7.00;;
9445;SDS011;4761;49.490;10.908;2022-11-25T00:39:00;7.37;;;6.67;;
9445;SDS011;4761;49.490;10.908;2022-11-25T00:41:27;10.37;;;7.00;;
9445;SDS011;4761;49.490;10.908;2022-11-25T00:44:13;8.37;;;7.37;;
9445;SDS011;4761;49.490;10.908;2022-11-25T00:46:59;8.93;;;7.40;;
9445;SDS011;4761;49.490;10.908;2022-11-25T00:49:28;8.30;;;6.53;;
9445;SDS011;4761;49.490;10.908;2022-11-25T00:51:54;10.10;;;7.37;;
9445;SDS011;4761;49.490;10.908;2022-11-25T00:54:20;8.50;;;6.57;;
9445;SDS011;4761;49.490;10.908;2022-11-25T00:56:45;9.33;;;7.00;;
9445;SDS011;4761;49.490;10.908;2022-11-25T00:59:11;9.17;;;6.90;;
9445;SDS011;4761;49.490;10.908;2022-11-25T01:01:37;8.53;;;6.57;;
9445;SDS011;4761;49.490;10.908;2022-11-25T01:04:03;8.33;;;6.40;;
9445;SDS011;4761;49.490;10.908;2022-11-25T01:06:29;9.80;;;6.33;;
9445;SDS011;4761;49.490;10.908;2022-11-25T01:08:55;8.67;;;6.40;;
9445;SDS011;4761;49.490;10.908;2022-11-25T01:11:21;9.20;;;6.87;;
9445;SDS011;4761;49.490;10.908;2022-11-25T01:13:47;8.97;;;6.77;;
9445;SDS011;4761;49.490;10.908;2022-11-25T01:16:14;10.00;;;6.77;;
9445;SDS011;4761;49.490;10.908;2022-11-25T01:18:42;11.10;;;7.37;;
9445;SDS011;4761;49.490;10.908;2022-11-25T01:21:12;9.70;;;7.17;;
9445;SDS011;4761;49.490;10.908;2022-11-25T01:23:42;9.30;;;7.03;;
9445;SDS011;4761;49.490;10.908;2022-11-25T01:26:12;10.10;;;7.70;;
9445;SDS011;4761;49.490;10.908;2022-11-25T01:28:39;10.97;;;8.30;;
9445;SDS011;4761;49.490;10.908;2022-11-25T01:31:06;11.23;;;8.20;;
9445;SDS011;4761;49.490;10.908;2022-11-25T01:33:38;10.43;;;8.00;;
9445;SDS011;4761;49.490;10.908;2022-11-25T01:36:06;10.00;;;7.20;;
9445;SDS011;4761;49.490;10.908;2022-11-25T01:38:33;10.63;;;7.47;;
9445;SDS011;4761;49.490;10.908;2022-11-25T01:40:59;10.40;;;7.97;;
9445;SDS011;4761;49.490;10.908;2022-11-25T01:43:26;11.13;;;7.77;;
9445;SDS011;4761;49.490;10.908;2022-11-25T01:45:54;8.30;;;7.10;;
9445;SDS011;4761;49.490;10.908;2022-11-25T01:48:33;8.33;;;7.10;;
9445;SDS011;4761;49.490;10.908;2022-11-25T01:51:25;9.33;;;7.13;;
9445;SDS011;4761;49.490;10.908;2022-11-25T01:54:10;10.43;;;7.30;;
9445;SDS011;4761;49.490;10.908;2022-11-25T01:56:39;7.93;;;6.53;;
9445;SDS011;4761;49.490;10.908;2022-11-25T01:59:10;7.13;;;6.40;;
9445;SDS011;4761;49.490;10.908;2022-11-25T02:01:36;8.37;;;6.23;;
9445;SDS011;4761;49.490;10.908;2022-11-25T02:04:02;8.97;;;6.63;;
9445;SDS011;4761;49.490;10.908;2022-11-25T02:06:34;7.63;;;6.27;;
9445;SDS011;4761;49.490;10.908;2022-11-25T02:09:03;7.53;;;5.77;;
9445;SDS011;4761;49.490;10.908;2022-11-25T02:11:30;7.93;;;5.37;;
9445;SDS011;4761;49.490;10.908;2022-11-25T02:13:57;6.27;;;5.10;;
9445;SDS011;4761;49.490;10.908;2022-11-25T02:16:23;6.10;;;5.50;;
9445;SDS011;4761;49.490;10.908;2022-11-25T02:18:49;6.70;;;5.47;;
9445;SDS011;4761;49.490;10.908;2022-11-25T02:21:17;6.13;;;5.13;;
9445;SDS011;4761;49.490;10.908;2022-11-25T02:23:50;5.77;;;4.93;;
9445;SDS011;4761;49.490;10.908;2022-11-25T02:26:28;6.07;;;5.07;;
9445;SDS011;4761;49.490;10.908;2022-11-25T02:28:54;6.30;;;5.33;;
9445;SDS011;4761;49.490;10.908;2022-11-25T02:31:21;5.80;;;5.03;;
9445;SDS011;4761;49.490;10.908;2022-11-25T02:33:47;5.43;;;4.83;;
9445;SDS011;4761;49.490;10.908;2022-11-25T02:36:20;6.43;;;5.40;;
9445;SDS011;4761;49.490;10.908;2022-11-25T02:38:48;6.00;;;5.20;;
9445;SDS011;4761;49.490;10.908;2022-11-25T02:41:18;6.73;;;5.03;;
9445;SDS011;4761;49.490;10.908;2022-11-25T02:43:50;6.23;;;5.27;;
9445;SDS011;4761;49.490;10.908;2022-11-25T02:46:16;5.57;;;4.73;;
9445;SDS011;4761;49.490;10.908;2022-11-25T02:48:44;6.97;;;4.77;;
9445;SDS011;4761;49.490;10.908;2022-11-25T02:51:11;4.90;;;4.20;;
9445;SDS011;4761;49.490;10.908;2022-11-25T02:53:38;5.53;;;4.90;;
9445;SDS011;4761;49.490;10.908;2022-11-25T02:56:04;4.87;;;4.40;;
9445;SDS011;4761;49.490;10.908;2022-11-25T02:58:30;5.47;;;4.40;;
9445;SDS011;4761;49.490;10.908;2022-11-25T03:00:56;5.33;;;4.57;;
9445;SDS011;4761;49.490;10.908;2022-11-25T03:03:21;5.57;;;4.80;;
9445;SDS011;4761;49.490;10.908;2022-11-25T03:05:47;6.17;;;4.80;;
9445;SDS011;4761;49.490;10.908;2022-11-25T03:08:13;5.37;;;4.60;;
9445;SDS011;4761;49.490;10.908;2022-11-25T03:10:38;5.37;;;4.47;;
9445;SDS011;4761;49.490;10.908;2022-11-25T03:13:04;5.50;;;4.77;;
9445;SDS011;4761;49.490;10.908;2022-11-25T03:15:31;4.37;;;3.97;;
9445;SDS011;4761;49.490;10.908;2022-11-25T03:17:57;4.90;;;4.23;;
9445;SDS011;4761;49.490;10.908;2022-11-25T03:20:23;5.43;;;4.17;;
9445;SDS011;4761;49.490;10.908;2022-11-25T03:22:49;6.80;;;4.23;;
9445;SDS011;4761;49.490;10.908;2022-11-25T03:25:15;5.07;;;4.47;;
9445;SDS011;4761;49.490;10.908;2022-11-25T03:27:41;5.77;;;4.03;;
9445;SDS011;4761;49.490;10.908;2022-11-25T03:30:09;5.37;;;4.13;;
9445;SDS011;4761;49.490;10.908;2022-11-25T03:32:37;5.60;;;4.13;;
9445;SDS011;4761;49.490;10.908;2022-11-25T03:35:03;5.50;;;4.23;;
9445;SDS011;4761;49.490;10.908;2022-11-25T03:37:29;5.97;;;4.67;;
9445;SDS011;4761;49.490;10.908;2022-11-25T03:39:55;6.27;;;4.27;;
9445;SDS011;4761;49.490;10.908;2022-11-25T03:42:20;4.97;;;4.03;;
9445;SDS011;4761;49.490;10.908;2022-11-25T03:44:46;7.10;;;4.20;;
9445;SDS011;4761;49.490;10.908;2022-11-25T03:47:11;5.37;;;4.10;;
9445;SDS011;4761;49.490;10.908;2022-11-25T03:49:37;6.23;;;3.80;;
9445;SDS011;4761;49.490;10.908;2022-11-25T03:52:02;4.40;;;4.00;;
9445;SDS011;4761;49.490;10.908;2022-11-25T03:54:28;4.47;;;3.80;;
9445;SDS011;4761;49.490;10.908;2022-11-25T03:56:54;4.27;;;3.70;;
9445;SDS011;4761;49.490;10.908;2022-11-25T03:59:20;4.90;;;4.27;;
9445;SDS011;4761;49.490;10.908;2022-11-25T04:01:45;4.50;;;3.63;;
9445;SDS011;4761;49.490;10.908;2022-11-25T04:04:11;6.63;;;4.17;;
9445;SDS011;4761;49.490;10.908;2022-11-25T04:06:36;4.77;;;3.83;;
9445;SDS011;4761;49.490;10.908;2022-11-25T04:09:03;4.37;;;3.30;;
9445;SDS011;4761;49.490;10.908;2022-11-25T04:11:32;4.20;;;3.57;;
9445;SDS011;4761;49.490;10.908;2022-11-25T04:14:16;5.07;;;3.67;;
9445;SDS011;4761;49.490;10.908;2022-11-25T04:16:41;4.00;;;3.40;;
9445;SDS011;4761;49.490;10.908;2022-11-25T04:19:07;5.07;;;3.40;;
9445;SDS011;4761;49.490;10.908;2022-11-25T04:21:33;3.97;;;3.40;;
9445;SDS011;4761;49.490;10.908;2022-11-25T04:23:58;4.00;;;3.33;;
9445;SDS011;4761;49.490;10.908;2022-11-25T04:26:24;4.20;;;3.20;;
9445;SDS011;4761;49.490;10.908;2022-11-25T04:28:49;4.27;;;3.40;;
9445;SDS011;4761;49.490;10.908;2022-11-25T04:31:15;4.13;;;3.30;;
9445;SDS011;4761;49.490;10.908;2022-11-25T04:33:40;4.07;;;3.20;;
9445;SDS011;4761;49.490;10.908;2022-11-25T04:36:06;7.50;;;3.20;;
9445;SDS011;4761;49.490;10.908;2022-11-25T04:38:32;4.53;;;3.33;;
9445;SDS011;4761;49.490;10.908;2022-11-25T04:40:58;5.30;;;3.47;;
9445;SDS011;4761;49.490;10.908;2022-11-25T04:43:23;5.20;;;3.50;;
9445;SDS011;4761;49.490;10.908;2022-11-25T04:45:49;4.43;;;3.30;;
9445;SDS011;4761;49.490;10.908;2022-11-25T04:48:16;5.27;;;3.10;;
9445;SDS011;4761;49.490;10.908;2022-11-25T04:50:41;4.37;;;3.50;;
9445;SDS011;4761;49.490;10.908;2022-11-25T04:53:07;4.87;;;3.13;;
9445;SDS011;4761;49.490;10.908;2022-11-25T04:55:32;5.53;;;3.50;;
9445;SDS011;4761;49.490;10.908;2022-11-25T04:57:58;5.53;;;3.30;;
9445;SDS011;4761;49.490;10.908;2022-11-25T05:00:23;3.97;;;3.13;;
9445;SDS011;4761;49.490;10.908;2022-11-25T05:02:49;4.67;;;3.40;;
9445;SDS011;4761;49.490;10.908;2022-11-25T05:05:14;4.30;;;3.13;;
9445;SDS011;4761;49.490;10.908;2022-11-25T05:07:40;3.73;;;3.20;;
9445;SDS011;4761;49.490;10.908;2022-11-25T05:10:06;4.37;;;3.20;;
9445;SDS011;4761;49.490;10.908;2022-11-25T05:12:32;5.83;;;3.43;;
9445;SDS011;4761;49.490;10.908;2022-11-25T05:14:58;4.67;;;3.67;;
9445;SDS011;4761;49.490;10.908;2022-11-25T05:17:25;4.17;;;3.23;;
9445;SDS011;4761;49.490;10.908;2022-11-25T05:19:52;4.33;;;3.23;;
9445;SDS011;4761;49.490;10.908;2022-11-25T05:22:19;4.33;;;3.20;;
9445;SDS011;4761;49.490;10.908;2022-11-25T05:24:46;5.37;;;3.40;;
9445;SDS011;4761;49.490;10.908;2022-11-25T05:27:12;4.50;;;3.23;;
9445;SDS011;4761;49.490;10.908;2022-11-25T05:29:37;10.37;;;3.37;;
9445;SDS011;4761;49.490;10.908;2022-11-25T05:32:04;4.43;;;3.43;;
9445;SDS011;4761;49.490;10.908;2022-11-25T05:34:30;3.87;;;3.10;;
9445;SDS011;4761;49.490;10.908;2022-11-25T05:36:55;3.53;;;2.77;;
9445;SDS011;4761;49.490;10.908;2022-11-25T05:39:21;4.60;;;3.30;;
9445;SDS011;4761;49.490;10.908;2022-11-25T05:41:47;4.70;;;3.50;;
9445;SDS011;4761;49.490;10.908;2022-11-25T05:44:13;4.13;;;3.03;;
9445;SDS011;4761;49.490;10.908;2022-11-25T05:46:38;4.23;;;3.37;;
9445;SDS011;4761;49.490;10.908;2022-11-25T05:49:04;5.53;;;3.83;;
9445;SDS011;4761;49.490;10.908;2022-11-25T05:51:30;5.87;;;3.80;;
9445;SDS011;4761;49.490;10.908;2022-11-25T05:53:55;5.03;;;3.23;;
9445;SDS011;4761;49.490;10.908;2022-11-25T05:56:21;4.80;;;3.40;;
9445;SDS011;4761;49.490;10.908;2022-11-25T05:58:47;4.50;;;3.27;;
9445;SDS011;4761;49.490;10.908;2022-11-25T06:01:14;4.10;;;3.50;;
9445;SDS011;4761;49.490;10.908;2022-11-25T06:03:40;4.60;;;3.03;;
9445;SDS011;4761;49.490;10.908;2022-11-25T06:06:07;4.72;;;3.20;;
9445;SDS011;4761;49.490;10.908;2022-11-25T06:08:34;6.57;;;3.00;;
9445;SDS011;4761;49.490;10.908;2022-11-25T06:11:05;3.90;;;2.80;;
9445;SDS011;4761;49.490;10.908;2022-11-25T06:13:31;2.47;;;2.20;;
9445;SDS011;4761;49.490;10.908;2022-11-25T06:15:56;3.37;;;2.80;;
9445;SDS011;4761;49.490;10.908;2022-11-25T06:18:22;3.30;;;2.63;;
9445;SDS011;4761;49.490;10.908;2022-11-25T06:20:54;3.33;;;2.70;;
9445;SDS011;4761;49.490;10.908;2022-11-25T06:23:21;4.07;;;2.53;;
9445;SDS011;4761;49.490;10.908;2022-11-25T06:25:47;3.10;;;2.80;;
9445;SDS011;4761;49.490;10.908;2022-11-25T06:28:13;3.37;;;2.60;;
9445;SDS011;4761;49.490;10.908;2022-11-25T06:30:38;3.43;;;2.77;;
9445;SDS011;4761;49.490;10.908;2022-11-25T06:33:04;3.57;;;2.90;;
9445;SDS011;4761;49.490;10.908;2022-11-25T06:35:29;3.97;;;2.70;;
9445;SDS011;4761;49.490;10.908;2022-11-25T06:37:56;3.37;;;2.60;;
9445;SDS011;4761;49.490;10.908;2022-11-25T06:40:22;5.83;;;3.37;;
9445;SDS011;4761;49.490;10.908;2022-11-25T06:42:48;3.60;;;2.80;;
9445;SDS011;4761;49.490;10.908;2022-11-25T06:45:13;3.70;;;3.30;;
9445;SDS011;4761;49.490;10.908;2022-11-25T06:47:39;3.90;;;3.50;;
9445;SDS011;4761;49.490;10.908;2022-11-25T06:50:04;4.43;;;3.40;;
9445;SDS011;4761;49.490;10.908;2022-11-25T06:52:31;3.70;;;3.30;;
9445;SDS011;4761;49.490;10.908;2022-11-25T06:54:56;5.57;;;3.70;;
9445;SDS011;4761;49.490;10.908;2022-11-25T06:57:22;4.57;;;3.40;;
9445;SDS011;4761;49.490;10.908;2022-11-25T06:59:47;5.27;;;3.60;;
9445;SDS011;4761;49.490;10.908;2022-11-25T07:02:13;5.47;;;3.20;;
9445;SDS011;4761;49.490;10.908;2022-11-25T07:04:39;4.10;;;3.20;;
9445;SDS011;4761;49.490;10.908;2022-11-25T07:07:05;5.07;;;3.37;;
9445;SDS011;4761;49.490;10.908;2022-11-25T07:09:31;4.17;;;3.33;;
9445;SDS011;4761;49.490;10.908;2022-11-25T07:11:57;5.10;;;3.47;;
9445;SDS011;4761;49.490;10.908;2022-11-25T07:14:22;4.83;;;3.20;;
9445;SDS011;4761;49.490;10.908;2022-11-25T07:16:48;3.60;;;3.20;;
9445;SDS011;4761;49.490;10.908;2022-11-25T07:19:14;4.67;;;3.13;;
9445;SDS011;4761;49.490;10.908;2022-11-25T07:21:41;3.70;;;3.20;;
9445;SDS011;4761;49.490;10.908;2022-11-25T07:24:09;3.67;;;2.80;;
9445;SDS011;4761;49.490;10.908;2022-11-25T07:26:37;5.67;;;3.40;;
9445;SDS011;4761;49.490;10.908;2022-11-25T07:29:05;3.97;;;3.17;;
9445;SDS011;4761;49.490;10.908;2022-11-25T07:31:33;4.87;;;3.20;;
9445;SDS011;4761;49.490;10.908;2022-11-25T07:34:01;3.23;;;2.90;;
9445;SDS011;4761;49.490;10.908;2022-11-25T07:36:31;5.60;;;3.30;;
9445;SDS011;4761;49.490;10.908;2022-11-25T07:38:59;3.53;;;2.93;;
9445;SDS011;4761;49.490;10.908;2022-11-25T07:41:27;6.40;;;3.67;;
9445;SDS011;4761;49.490;10.908;2022-11-25T07:43:54;5.77;;;3.40;;
9445;SDS011;4761;49.490;10.908;2022-11-25T07:46:23;6.17;;;3.87;;
9445;SDS011;4761;49.490;10.908;2022-11-25T07:48:54;4.77;;;3.43;;
9445;SDS011;4761;49.490;10.908;2022-11-25T07:51:24;4.73;;;3.87;;
9445;SDS011;4761;49.490;10.908;2022-11-25T07:53:52;5.03;;;3.40;;
9445;SDS011;4761;49.490;10.908;2022-11-25T07:56:19;4.70;;;3.53;;
9445;SDS011;4761;49.490;10.908;2022-11-25T07:58:45;5.83;;;3.80;;
9445;SDS011;4761;49.490;10.908;2022-11-25T08:01:12;5.60;;;4.13;;
9445;SDS011;4761;49.490;10.908;2022-11-25T08:03:39;6.87;;;4.17;;
9445;SDS011;4761;49.490;10.908;2022-11-25T08:06:07;6.00;;;4.37;;
9445;SDS011;4761;49.490;10.908;2022-11-25T08:08:35;7.23;;;4.37;;
9445;SDS011;4761;49.490;10.908;2022-11-25T08:11:05;7.63;;;4.57;;
9445;SDS011;4761;49.490;10.908;2022-11-25T08:13:36;6.80;;;4.37;;
9445;SDS011;4761;49.490;10.908;2022-11-25T08:16:01;5.20;;;4.30;;
9445;SDS011;4761;49.490;10.908;2022-11-25T08:18:27;6.50;;;4.63;;
9445;SDS011;4761;49.490;10.908;2022-11-25T08:21:00;5.33;;;4.13;;
9445;SDS011;4761;49.490;10.908;2022-11-25T08:23:31;4.77;;;4.27;;
9445;SDS011;4761;49.490;10.908;2022-11-25T08:28:34;6.37;;;4.50;;
9445;SDS011;4761;49.490;10.908;2022-11-25T08:31:04;5.03;;;4.07;;
9445;SDS011;4761;49.490;10.908;2022-11-25T08:33:32;5.03;;;4.30;;
9445;SDS011;4761;49.490;10.908;2022-11-25T08:35:57;5.63;;;4.60;;
9445;SDS011;4761;49.490;10.908;2022-11-25T08:38:23;5.93;;;4.00;;
9445;SDS011;4761;49.490;10.908;2022-11-25T08:40:49;5.27;;;4.27;;
9445;SDS011;4761;49.490;10.908;2022-11-25T08:43:16;5.57;;;4.00;;
9445;SDS011;4761;49.490;10.908;2022-11-25T08:45:42;5.30;;;4.33;;
9445;SDS011;4761;49.490;10.908;2022-11-25T08:48:08;7.10;;;4.57;;
9445;SDS011;4761;49.490;10.908;2022-11-25T08:50:33;4.57;;;4.13;;
9445;SDS011;4761;49.490;10.908;2022-11-25T08:52:59;6.07;;;4.40;;
9445;SDS011;4761;49.490;10.908;2022-11-25T08:55:25;5.07;;;3.90;;
9445;SDS011;4761;49.490;10.908;2022-11-25T08:57:52;6.10;;;4.00;;
9445;SDS011;4761;49.490;10.908;2022-11-25T09:00:18;4.77;;;4.00;;
9445;SDS011;4761;49.490;10.908;2022-11-25T09:02:45;4.40;;;3.80;;
9445;SDS011;4761;49.490;10.908;2022-11-25T09:05:11;5.80;;;4.07;;
9445;SDS011;4761;49.490;10.908;2022-11-25T09:07:39;5.20;;;4.30;;
9445;SDS011;4761;49.490;10.908;2022-11-25T09:10:06;4.63;;;3.63;;
9445;SDS011;4761;49.490;10.908;2022-11-25T09:12:33;6.00;;;4.33;;
9445;SDS011;4761;49.490;10.908;2022-11-25T09:14:59;4.83;;;3.60;;
9445;SDS011;4761;49.490;10.908;2022-11-25T09:17:24;5.33;;;4.07;;
9445;SDS011;4761;49.490;10.908;2022-11-25T09:19:51;5.57;;;3.77;;
9445;SDS011;4761;49.490;10.908;2022-11-25T09:22:16;5.40;;;3.73;;
9445;SDS011;4761;49.490;10.908;2022-11-25T09:24:42;6.43;;;3.77;;
9445;SDS011;4761;49.490;10.908;2022-11-25T09:27:09;4.83;;;4.00;;
9445;SDS011;4761;49.490;10.908;2022-11-25T09:29:34;4.27;;;3.80;;
9445;SDS011;4761;49.490;10.908;2022-11-25T09:32:00;5.63;;;4.17;;
9445;SDS011;4761;49.490;10.908;2022-11-25T09:34:26;6.20;;;3.97;;
9445;SDS011;4761;49.490;10.908;2022-11-25T09:36:51;3.93;;;3.30;;
9445;SDS011;4761;49.490;10.908;2022-11-25T09:39:17;5.00;;;3.63;;
9445;SDS011;4761;49.490;10.908;2022-11-25T09:41:49;3.93;;;3.07;;
9445;SDS011;4761;49.490;10.908;2022-11-25T09:45:24;4.67;;;3.43;;
9445;SDS011;4761;49.490;10.908;2022-11-25T09:48:59;4.20;;;3.40;;
9445;SDS011;4761;49.490;10.908;2022-11-25T09:51:21;4.07;;;3.13;;
9445;SDS011;4761;49.490;10.908;2022-11-25T09:56:50;6.27;;;3.77;;
9445;SDS011;4761;49.490;10.908;2022-11-25T09:59:20;4.27;;;3.53;;
9445;SDS011;4761;49.490;10.908;2022-11-25T10:01:59;4.40;;;3.70;;
9445;SDS011;4761;49.490;10.908;2022-11-25T10:04:37;4.53;;;3.43;;
9445;SDS011;4761;49.490;10.908;2022-11-25T10:07:09;4.20;;;3.50;;
9445;SDS011;4761;49.490;10.908;2022-11-25T10:09:45;3.90;;;3.50;;
9445;SDS011;4761;49.490;10.908;2022-11-25T10:12:27;5.83;;;3.97;;
9445;SDS011;4761;49.490;10.908;2022-11-25T10:15:03;4.23;;;3.30;;
9445;SDS011;4761;49.490;10.908;2022-11-25T10:17:44;5.07;;;3.50;;
9445;SDS011;4761;49.490;10.908;2022-11-25T10:22:56;3.20;;;2.90;;
9445;SDS011;4761;49.490;10.908;2022-11-25T10:25:29;4.10;;;3.10;;
9445;SDS011;4761;49.490;10.908;2022-11-25T10:28:09;4.00;;;3.37;;
9445;SDS011;4761;49.490;10.908;2022-11-25T10:30:43;4.03;;;3.10;;
9445;SDS011;4761;49.490;10.908;2022-11-25T10:33:29;3.47;;;3.10;;
9445;SDS011;4761;49.490;10.908;2022-11-25T10:36:06;3.20;;;2.90;;
9445;SDS011;4761;49.490;10.908;2022-11-25T10:38:50;3.73;;;3.10;;
9445;SDS011;4761;49.490;10.908;2022-11-25T10:41:43;5.70;;;3.07;;
9445;SDS011;4761;49.490;10.908;2022-11-25T10:44:24;4.50;;;3.20;;
9445;SDS011;4761;49.490;10.908;2022-11-25T10:52:39;3.50;;;2.80;;
9445;SDS011;4761;49.490;10.908;2022-11-25T10:55:12;3.40;;;2.87;;
9445;SDS011;4761;49.490;10.908;2022-11-25T10:57:45;3.03;;;2.70;;
9445;SDS011;4761;49.490;10.908;2022-11-25T11:00:34;5.80;;;2.93;;
9445;SDS011;4761;49.490;10.908;2022-11-25T11:02:59;4.47;;;3.00;;
9445;SDS011;4761;49.490;10.908;2022-11-25T11:05:42;3.27;;;2.60;;
9445;SDS011;4761;49.490;10.908;2022-11-25T11:08:23;5.80;;;2.70;;
9445;SDS011;4761;49.490;10.908;2022-11-25T11:13:35;4.00;;;3.20;;
9445;SDS011;4761;49.490;10.908;2022-11-25T11:16:01;3.30;;;2.57;;
9445;SDS011;4761;49.490;10.908;2022-11-25T11:18:29;3.20;;;2.60;;
9445;SDS011;4761;49.490;10.908;2022-11-25T11:21:05;3.43;;;2.77;;
9445;SDS011;4761;49.490;10.908;2022-11-25T11:23:45;3.83;;;2.77;;
9445;SDS011;4761;49.490;10.908;2022-11-25T11:26:29;3.37;;;2.60;;
9445;SDS011;4761;49.490;10.908;2022-11-25T11:29:00;5.53;;;3.10;;
9445;SDS011;4761;49.490;10.908;2022-11-25T11:31:36;4.10;;;2.73;;
9445;SDS011;4761;49.490;10.908;2022-11-25T11:42:30;6.20;;;3.90;;
9445;SDS011;4761;49.490;10.908;2022-11-25T11:45:17;8.67;;;4.90;;
9445;SDS011;4761;49.490;10.908;2022-11-25T11:50:37;7.73;;;4.20;;
9445;SDS011;4761;49.490;10.908;2022-11-25T11:53:23;6.73;;;4.30;;
9445;SDS011;4761;49.490;10.908;2022-11-25T12:04:18;6.07;;;3.83;;
9445;SDS011;4761;49.490;10.908;2022-11-25T12:06:59;6.87;;;4.93;;
9445;SDS011;4761;49.490;10.908;2022-11-25T12:09:35;6.90;;;4.13;;
9445;SDS011;4761;49.490;10.908;2022-11-25T12:12:07;5.97;;;4.20;;
9445;SDS011;4761;49.490;10.908;2022-11-25T12:18:08;6.93;;;4.67;;
9445;SDS011;4761;49.490;10.908;2022-11-25T12:20:08;5.00;;;3.90;;
9445;SDS011;4761;49.490;10.908;2022-11-25T12:25:19;5.00;;;3.90;;
9445;SDS011;4761;49.490;10.908;2022-11-25T12:30:49;4.50;;;3.50;;
9445;SDS011;4761;49.490;10.908;2022-11-25T12:33:22;5.93;;;4.07;;
9445;SDS011;4761;49.490;10.908;2022-11-25T12:38:35;5.00;;;3.60;;
9445;SDS011;4761;49.490;10.908;2022-11-25T12:43:38;4.97;;;3.80;;
9445;SDS011;4761;49.490;10.908;2022-11-25T12:48:39;7.03;;;4.10;;
9445;SDS011;4761;49.490;10.908;2022-11-25T12:51:18;4.20;;;3.80;;
9445;SDS011;4761;49.490;10.908;2022-11-25T12:56:25;5.33;;;3.73;;
9445;SDS011;4761;49.490;10.908;2022-11-25T13:13:09;4.83;;;3.83;;
9445;SDS011;4761;49.490;10.908;2022-11-25T13:15:56;4.53;;;3.80;;
9445;SDS011;4761;49.490;10.908;2022-11-25T13:18:24;5.00;;;3.70;;
9445;SDS011;4761;49.490;10.908;2022-11-25T13:20:53;4.23;;;3.50;;
9445;SDS011;4761;49.490;10.908;2022-11-25T13:23:27;4.10;;;3.57;;
9445;SDS011;4761;49.490;10.908;2022-11-25T13:26:31;4.67;;;3.40;;
9445;SDS011;4761;49.490;10.908;2022-11-25T13:28:56;4.10;;;3.37;;
9445;SDS011;4761;49.490;10.908;2022-11-25T13:31:23;4.30;;;3.33;;
9445;SDS011;4761;49.490;10.908;2022-11-25T13:33:57;6.00;;;3.77;;
9445;SDS011;4761;49.490;10.908;2022-11-25T13:36:46;4.10;;;3.50;;
9445;SDS011;4761;49.490;10.908;2022-11-25T13:39:15;4.90;;;3.63;;
9445;SDS011;4761;49.490;10.908;2022-11-25T13:42:04;3.93;;;3.20;;
9445;SDS011;4761;49.490;10.908;2022-11-25T13:44:47;5.67;;;3.93;;
9445;SDS011;4761;49.490;10.908;2022-11-25T13:47:35;3.77;;;3.40;;
9445;SDS011;4761;49.490;10.908;2022-11-25T13:50:03;4.27;;;3.60;;
9445;SDS011;4761;49.490;10.908;2022-11-25T13:55:51;4.20;;;3.53;;
9445;SDS011;4761;49.490;10.908;2022-11-25T14:17:17;4.57;;;3.03;;
9445;SDS011;4761;49.490;10.908;2022-11-25T14:20:08;3.90;;;2.90;;
9445;SDS011;4761;49.490;10.908;2022-11-25T14:25:25;4.00;;;3.03;;
9445;SDS011;4761;49.490;10.908;2022-11-25T14:28:07;5.10;;;3.03;;
9445;SDS011;4761;49.490;10.908;2022-11-25T14:30:45;4.33;;;2.97;;
9445;SDS011;4761;49.490;10.908;2022-11-25T14:33:16;4.43;;;3.10;;
9445;SDS011;4761;49.490;10.908;2022-11-25T14:35:52;4.10;;;3.13;;
9445;SDS011;4761;49.490;10.908;2022-11-25T14:38:31;4.70;;;3.10;;
9445;SDS011;4761;49.490;10.908;2022-11-25T14:41:06;3.57;;;2.80;;
9445;SDS011;4761;49.490;10.908;2022-11-25T14:43:42;4.77;;;2.97;;
9445;SDS011;4761;49.490;10.908;2022-11-25T14:46:13;4.23;;;2.77;;
9445;SDS011;4761;49.490;10.908;2022-11-25T14:48:40;4.23;;;2.93;;
9445;SDS011;4761;49.490;10.908;2022-11-25T14:51:11;3.60;;;2.50;;
9445;SDS011;4761;49.490;10.908;2022-11-25T14:53:43;4.40;;;2.70;;
9445;SDS011;4761;49.490;10.908;2022-11-25T14:56:11;3.60;;;2.67;;
9445;SDS011;4761;49.490;10.908;2022-11-25T14:58:41;4.13;;;2.77;;
9445;SDS011;4761;49.490;10.908;2022-11-25T15:03:47;3.87;;;2.53;;
9445;SDS011;4761;49.490;10.908;2022-11-25T15:06:14;4.73;;;3.00;;
9445;SDS011;4761;49.490;10.908;2022-11-25T15:08:41;4.23;;;3.20;;
9445;SDS011;4761;49.490;10.908;2022-11-25T15:11:11;3.03;;;2.63;;
9445;SDS011;4761;49.490;10.908;2022-11-25T15:14:02;4.70;;;3.13;;
9445;SDS011;4761;49.490;10.908;2022-11-25T15:16:38;4.80;;;3.23;;
9445;SDS011;4761;49.490;10.908;2022-11-25T15:19:14;4.43;;;3.40;;
9445;SDS011;4761;49.490;10.908;2022-11-25T15:21:42;4.90;;;3.43;;
9445;SDS011;4761;49.490;10.908;2022-11-25T15:24:27;5.63;;;3.63;;
9445;SDS011;4761;49.490;10.908;2022-11-25T15:27:10;4.93;;;3.50;;
9445;SDS011;4761;49.490;10.908;2022-11-25T15:29:39;5.97;;;3.40;;
9445;SDS011;4761;49.490;10.908;2022-11-25T15:32:07;4.43;;;3.50;;
9445;SDS011;4761;49.490;10.908;2022-11-25T15:34:39;6.00;;;3.50;;
9445;SDS011;4761;49.490;10.908;2022-11-25T15:37:04;5.57;;;3.60;;
9445;SDS011;4761;49.490;10.908;2022-11-25T15:39:30;4.50;;;3.20;;
9445;SDS011;4761;49.490;10.908;2022-11-25T15:42:04;5.50;;;3.20;;
9445;SDS011;4761;49.490;10.908;2022-11-25T15:44:46;4.97;;;3.47;;
9445;SDS011;4761;49.490;10.908;2022-11-25T15:47:26;4.60;;;3.00;;
9445;SDS011;4761;49.490;10.908;2022-11-25T15:50:01;4.37;;;2.67;;
9445;SDS011;4761;49.490;10.908;2022-11-25T15:52:32;3.87;;;2.93;;
9445;SDS011;4761;49.490;10.908;2022-11-25T15:55:16;4.30;;;3.00;;
9445;SDS011;4761;49.490;10.908;2022-11-25T15:58:17;3.77;;;2.80;;
9445;SDS011;4761;49.490;10.908;2022-11-25T16:01:04;4.10;;;2.70;;
9445;SDS011;4761;49.490;10.908;2022-11-25T16:03:45;4.27;;;2.97;;
9445;SDS011;4761;49.490;10.908;2022-11-25T16:06:18;3.63;;;2.60;;
9445;SDS011;4761;49.490;10.908;2022-11-25T16:08:56;4.57;;;2.63;;
9445;SDS011;4761;49.490;10.908;2022-11-25T16:11:24;4.90;;;2.50;;
9445;SDS011;4761;49.490;10.908;2022-11-25T16:13:53;4.30;;;2.60;;
9445;SDS011;4761;49.490;10.908;2022-11-25T16:16:29;4.10;;;2.80;;
9445;SDS011;4761;49.490;10.908;2022-11-25T16:19:05;4.20;;;2.90;;
9445;SDS011;4761;49.490;10.908;2022-11-25T16:21:43;4.57;;;2.70;;
9445;SDS011;4761;49.490;10.908;2022-11-25T16:24:33;3.33;;;2.60;;
9445;SDS011;4761;49.490;10.908;2022-11-25T16:27:02;4.10;;;3.00;;
9445;SDS011;4761;49.490;10.908;2022-11-25T16:30:25;12.87;;;3.90;;
9445;SDS011;4761;49.490;10.908;2022-11-25T16:32:52;6.77;;;3.60;;
9445;SDS011;4761;49.490;10.908;2022-11-25T16:35:18;6.80;;;3.80;;
9445;SDS011;4761;49.490;10.908;2022-11-25T16:37:48;7.47;;;3.90;;
9445;SDS011;4761;49.490;10.908;2022-11-25T16:40:14;6.33;;;3.53;;
9445;SDS011;4761;49.490;10.908;2022-11-25T16:42:43;7.70;;;3.60;;
9445;SDS011;4761;49.490;10.908;2022-11-25T16:45:16;11.17;;;3.90;;
9445;SDS011;4761;49.490;10.908;2022-11-25T16:47:51;8.17;;;4.10;;
9445;SDS011;4761;49.490;10.908;2022-11-25T16:50:18;5.97;;;3.60;;
9445;SDS011;4761;49.490;10.908;2022-11-25T16:52:44;6.77;;;3.83;;
9445;SDS011;4761;49.490;10.908;2022-11-25T16:55:10;6.67;;;4.10;;
9445;SDS011;4761;49.490;10.908;2022-11-25T16:57:36;6.43;;;3.93;;